PWSweather.com
Personal Weather Stations
Station Observations
SHAHALMS1
Eftra, Falkenberg, HA

EftraFalkenberg, HA

Lat: 56.85, Lon: 12.65

Elevation: 140

Station Type:

http://hem.passagen.se/risarp101

High Low Average
Temperature 55.2°F12.9°C 42.1°F5.6°C 50.2°F10.1°C
Dew Point 48.1°F8.9°C 26.6°F-3.0°C 41.3°F5.2°C
Winds 18.0 mph 29.0 kmh 3.5 mph 5.6 kmh 12.0 mph WNW19.3 kmh WNW
Wind Gusts 46.9 mph75.5 kmh 4.3 mph6.9 kmh 27.0 mph43.5 kmh
Humidity 91% 53% 72%
Pressure 29.62 in1003.0 mb 29.09 in985.1 mb -
Precipitation 0.82 in20.8 mm - -
Hour Temp Dew Point Humidity Winds Wind Gusts Pressure Precip Precip Rate Daily Precip Total
12:00 AM 47.3°F8.5°C 42.1°F5.6°C 82% 12.7 mph W20.4 kmh W 26.8 mph43.1 kmh 29.62 in1003.0 mb 0.06 in1.5 mm 0.00 in0.0 mm 0.06 in1.5 mm
12:15 AM 47.5°F8.6°C 42.6°F5.9°C 83% 13.0 mph W20.9 kmh W 27.9 mph44.9 kmh 29.59 in1002.0 mb 0.09 in2.3 mm 0.12 in3.0 mm 0.09 in2.3 mm
12:30 AM 47.5°F8.6°C 42.9°F6.1°C 84% 13.9 mph W22.4 kmh W 29.0 mph46.7 kmh 29.53 in1000.0 mb 0.09 in2.3 mm 0.00 in0.0 mm 0.09 in2.3 mm
12:45 AM 47.8°F8.8°C 43.5°F6.4°C 85% 14.9 mph W24.0 kmh W 31.5 mph50.7 kmh 29.53 in1000.0 mb 0.04 in1.0 mm 0.00 in0.0 mm 0.09 in2.3 mm
01:00 AM 47.8°F8.8°C 44.2°F6.8°C 87% 16.3 mph W26.2 kmh W 46.9 mph75.5 kmh 29.50 in999.0 mb 0.09 in2.3 mm 0.07 in1.8 mm 0.15 in3.8 mm
01:15 AM 48.0°F8.9°C 44.3°F6.8°C 87% 15.9 mph W25.6 kmh W 32.9 mph52.9 kmh 29.50 in999.0 mb 0.06 in1.5 mm 0.00 in0.0 mm 0.15 in3.8 mm
01:30 AM 48.0°F8.9°C 44.6°F7.0°C 88% 16.0 mph W25.7 kmh W 45.8 mph73.7 kmh 29.47 in998.0 mb 0.06 in1.5 mm 0.00 in0.0 mm 0.15 in3.8 mm
01:45 AM 48.2°F9.0°C 45.1°F7.3°C 89% 15.6 mph W25.1 kmh W 31.5 mph50.7 kmh 29.45 in997.3 mb 0.06 in1.5 mm 0.00 in0.0 mm 0.15 in3.8 mm
02:00 AM 48.4°F9.1°C 45.6°F7.6°C 90% 16.4 mph W26.4 kmh W 40.4 mph65.0 kmh 29.45 in997.3 mb 0.05 in1.3 mm 0.00 in0.0 mm 0.20 in5.1 mm
02:15 AM 48.6°F9.2°C 46.1°F7.8°C 91% 14.7 mph W23.7 kmh W 29.7 mph47.8 kmh 29.41 in995.9 mb 0.05 in1.3 mm 0.00 in0.0 mm 0.20 in5.1 mm
02:30 AM 48.9°F9.4°C 46.4°F8.0°C 91% 13.5 mph W21.7 kmh W 24.3 mph39.1 kmh 29.36 in994.2 mb 0.09 in2.3 mm 0.16 in4.1 mm 0.24 in6.1 mm
02:45 AM 49.3°F9.6°C 46.8°F8.2°C 91% 13.1 mph W21.1 kmh W 27.9 mph44.9 kmh 29.39 in995.3 mb 0.09 in2.3 mm 0.00 in0.0 mm 0.24 in6.1 mm
03:00 AM 49.5°F9.7°C 46.9°F8.3°C 91% 12.2 mph W19.6 kmh W 35.4 mph57.0 kmh 29.36 in994.2 mb 0.09 in2.3 mm 0.00 in0.0 mm 0.29 in7.4 mm
03:15 AM 49.6°F9.8°C 47.1°F8.4°C 91% 11.2 mph W18.0 kmh W 21.5 mph34.6 kmh 29.33 in993.2 mb 0.09 in2.3 mm 0.00 in0.0 mm 0.29 in7.4 mm
03:30 AM 49.6°F9.8°C 47.1°F8.4°C 91% 12.4 mph W20.0 kmh W 24.3 mph39.1 kmh 29.33 in993.2 mb 0.09 in2.3 mm 0.00 in0.0 mm 0.33 in8.4 mm
03:45 AM 49.8°F9.9°C 47.3°F8.5°C 91% 13.7 mph W22.0 kmh W 33.6 mph54.1 kmh 29.30 in992.2 mb 0.09 in2.3 mm 0.00 in0.0 mm 0.33 in8.4 mm
04:00 AM 50.0°F10.0°C 47.5°F8.6°C 91% 13.2 mph W21.2 kmh W 26.8 mph43.1 kmh 29.27 in991.2 mb 0.10 in2.5 mm 0.01 in0.3 mm 0.39 in9.9 mm
04:15 AM 50.0°F10.0°C 47.5°F8.6°C 91% 12.9 mph W20.8 kmh W 27.6 mph44.4 kmh 29.27 in991.2 mb 0.15 in3.8 mm 0.20 in5.1 mm 0.44 in11.2 mm
04:30 AM 50.2°F10.1°C 47.7°F8.7°C 91% 12.3 mph W19.8 kmh W 30.4 mph48.9 kmh 29.24 in990.2 mb 0.10 in2.5 mm 0.00 in0.0 mm 0.44 in11.2 mm
04:45 AM 50.4°F10.2°C 47.8°F8.8°C 91% 13.0 mph W20.9 kmh W 36.9 mph59.4 kmh 29.21 in989.2 mb 0.15 in3.8 mm 0.20 in5.1 mm 0.48 in12.2 mm
05:00 AM 50.4°F10.2°C 47.8°F8.8°C 91% 14.6 mph W23.5 kmh W 37.9 mph61.0 kmh 29.18 in988.1 mb 0.09 in2.3 mm 0.00 in0.0 mm 0.48 in12.2 mm
05:15 AM 50.7°F10.4°C 47.9°F8.8°C 90% 16.0 mph W25.7 kmh W 39.4 mph63.4 kmh 29.21 in989.2 mb 0.05 in1.3 mm 0.00 in0.0 mm 0.48 in12.2 mm
05:30 AM 50.7°F10.4°C 47.9°F8.8°C 90% 17.1 mph W27.5 kmh W 40.1 mph64.5 kmh 29.21 in989.2 mb 0.05 in1.3 mm 0.00 in0.0 mm 0.48 in12.2 mm
05:46 AM 50.9°F10.5°C 47.8°F8.8°C 89% 17.5 mph W28.2 kmh W 40.1 mph64.5 kmh 29.18 in988.1 mb 0.00 in0.0 mm 0.00 in0.0 mm 0.48 in12.2 mm
06:00 AM 51.1°F10.6°C 47.6°F8.7°C 88% 16.3 mph WNW26.2 kmh WNW 34.0 mph54.7 kmh 29.15 in987.1 mb 0.05 in1.3 mm 0.07 in1.8 mm 0.53 in13.5 mm
06:15 AM 51.1°F10.6°C 47.3°F8.5°C 87% 14.1 mph W22.7 kmh W 36.1 mph58.1 kmh 29.15 in987.1 mb 0.05 in1.3 mm 0.00 in0.0 mm 0.53 in13.5 mm
06:30 AM 51.1°F10.6°C 47.3°F8.5°C 87% 17.4 mph W28.0 kmh W 43.7 mph70.3 kmh 29.15 in987.1 mb 0.05 in1.3 mm 0.00 in0.0 mm 0.53 in13.5 mm
06:45 AM 51.1°F10.6°C 47.3°F8.5°C 87% 14.5 mph W23.3 kmh W 28.3 mph45.5 kmh 29.15 in987.1 mb 0.05 in1.3 mm 0.00 in0.0 mm 0.53 in13.5 mm
07:00 AM 50.9°F10.5°C 47.2°F8.4°C 87% 14.9 mph W24.0 kmh W 36.5 mph58.7 kmh 29.15 in987.1 mb 0.00 in0.0 mm 0.00 in0.0 mm 0.53 in13.5 mm
07:15 AM 50.9°F10.5°C 47.5°F8.6°C 88% 13.9 mph WNW22.4 kmh WNW 36.1 mph58.1 kmh 29.15 in987.1 mb 0.05 in1.3 mm 0.20 in5.1 mm 0.58 in14.7 mm
07:30 AM 50.7°F10.4°C 47.3°F8.5°C 88% 14.4 mph W23.2 kmh W 33.6 mph54.1 kmh 29.15 in987.1 mb 0.05 in1.3 mm 0.00 in0.0 mm 0.58 in14.7 mm
07:45 AM 50.7°F10.4°C 47.6°F8.7°C 89% 15.2 mph W24.5 kmh W 40.8 mph65.7 kmh 29.15 in987.1 mb 0.09 in2.3 mm 0.16 in4.1 mm 0.62 in15.7 mm
08:00 AM 50.7°F10.4°C 47.6°F8.7°C 89% 13.0 mph WNW20.9 kmh WNW 29.0 mph46.7 kmh 29.15 in987.1 mb 0.14 in3.6 mm 0.07 in1.8 mm 0.67 in17.0 mm
08:15 AM 50.5°F10.3°C 47.4°F8.6°C 89% 15.9 mph WNW25.6 kmh WNW 36.5 mph58.7 kmh 29.12 in986.1 mb 0.14 in3.6 mm 0.00 in0.0 mm 0.71 in18.0 mm
08:30 AM 50.5°F10.3°C 47.4°F8.6°C 89% 12.2 mph W19.6 kmh W 40.1 mph64.5 kmh 29.15 in987.1 mb 0.14 in3.6 mm 0.00 in0.0 mm 0.71 in18.0 mm
08:45 AM 50.7°F10.4°C 47.6°F8.7°C 89% 12.1 mph W19.5 kmh W 31.1 mph50.1 kmh 29.12 in986.1 mb 0.09 in2.3 mm 0.00 in0.0 mm 0.71 in18.0 mm
09:00 AM 51.1°F10.6°C 48.0°F8.9°C 89% 12.2 mph W19.6 kmh W 26.8 mph43.1 kmh 29.12 in986.1 mb 0.10 in2.5 mm 0.01 in0.3 mm 0.77 in19.6 mm
09:15 AM 51.4°F10.8°C 48.0°F8.9°C 88% 13.5 mph WNW21.7 kmh WNW 28.6 mph46.0 kmh 29.12 in986.1 mb 0.06 in1.5 mm 0.00 in0.0 mm 0.77 in19.6 mm
09:30 AM 51.8°F11.0°C 48.1°F8.9°C 87% 11.0 mph W17.7 kmh W 27.9 mph44.9 kmh 29.15 in987.1 mb 0.06 in1.5 mm 0.00 in0.0 mm 0.77 in19.6 mm
09:45 AM 52.3°F11.3°C 47.3°F8.5°C 83% 12.9 mph WNW20.8 kmh WNW 34.4 mph55.4 kmh 29.15 in987.1 mb 0.06 in1.5 mm 0.00 in0.0 mm 0.77 in19.6 mm
10:00 AM 52.3°F11.3°C 46.4°F8.0°C 80% 13.2 mph WNW21.2 kmh WNW 30.8 mph49.6 kmh 29.12 in986.1 mb 0.00 in0.0 mm 0.00 in0.0 mm 0.77 in19.6 mm
10:15 AM 52.7°F11.5°C 46.0°F7.8°C 78% 12.1 mph WNW19.5 kmh WNW 29.0 mph46.7 kmh 29.15 in987.1 mb 0.00 in0.0 mm 0.00 in0.0 mm 0.77 in19.6 mm
10:30 AM 53.2°F11.8°C 45.5°F7.5°C 75% 15.7 mph WNW25.3 kmh WNW 33.6 mph54.1 kmh 29.15 in987.1 mb 0.00 in0.0 mm 0.00 in0.0 mm 0.77 in19.6 mm
10:45 AM 53.4°F11.9°C 45.3°F7.4°C 74% 11.3 mph WNW18.2 kmh WNW 26.1 mph42.0 kmh 29.15 in987.1 mb 0.00 in0.0 mm 0.00 in0.0 mm 0.77 in19.6 mm
11:00 AM 53.8°F12.1°C 46.0°F7.8°C 75% 12.8 mph WNW20.6 kmh WNW 30.8 mph49.6 kmh 29.12 in986.1 mb 0.00 in0.0 mm 0.00 in0.0 mm 0.77 in19.6 mm
11:15 AM 54.3°F12.4°C 46.2°F7.9°C 74% 11.0 mph WNW17.7 kmh WNW 24.7 mph39.8 kmh 29.15 in987.1 mb 0.00 in0.0 mm 0.00 in0.0 mm 0.77 in19.6 mm
11:30 AM 54.5°F12.5°C 46.0°F7.8°C 73% 12.2 mph WNW19.6 kmh WNW 26.8 mph43.1 kmh 29.15 in987.1 mb 0.00 in0.0 mm 0.00 in0.0 mm 0.77 in19.6 mm
11:45 AM 54.9°F12.7°C 46.0°F7.8°C 72% 10.9 mph WNW17.5 kmh WNW 26.8 mph43.1 kmh 29.12 in986.1 mb 0.00 in0.0 mm 0.00 in0.0 mm 0.77 in19.6 mm
12:00 PM 54.9°F12.7°C 45.6°F7.6°C 71% 10.6 mph NW17.1 kmh NW 26.8 mph43.1 kmh 29.12 in986.1 mb 0.00 in0.0 mm 0.00 in0.0 mm 0.77 in19.6 mm
12:15 PM 55.0°F12.8°C 45.1°F7.3°C 69% 13.0 mph NW20.9 kmh NW 37.9 mph61.0 kmh 29.12 in986.1 mb 0.00 in0.0 mm 0.00 in0.0 mm 0.77 in19.6 mm
12:30 PM 55.2°F12.9°C 44.8°F7.1°C 68% 10.6 mph NW17.1 kmh NW 26.5 mph42.6 kmh 29.12 in986.1 mb 0.00 in0.0 mm 0.00 in0.0 mm 0.77 in19.6 mm
12:45 PM 54.7°F12.6°C 43.5°F6.4°C 66% 14.1 mph NW22.7 kmh NW 28.3 mph45.5 kmh 29.12 in986.1 mb 0.00 in0.0 mm 0.00 in0.0 mm 0.77 in19.6 mm
01:00 PM 54.5°F12.5°C 42.6°F5.9°C 64% 16.4 mph NW26.4 kmh NW 38.3 mph61.6 kmh 29.12 in986.1 mb 0.00 in0.0 mm 0.00 in0.0 mm 0.77 in19.6 mm
01:15 PM 55.2°F12.9°C 43.2°F6.2°C 64% 13.2 mph NW21.2 kmh NW 31.1 mph50.1 kmh 29.12 in986.1 mb 0.00 in0.0 mm 0.00 in0.0 mm 0.77 in19.6 mm
01:30 PM 55.2°F12.9°C 42.4°F5.8°C 62% 15.6 mph NW25.1 kmh NW 35.4 mph57.0 kmh 29.12 in986.1 mb 0.00 in0.0 mm 0.00 in0.0 mm 0.77 in19.6 mm
01:46 PM 54.5°F12.5°C 41.3°F5.2°C 61% 16.4 mph NW26.4 kmh NW 36.9 mph59.4 kmh 29.12 in986.1 mb 0.00 in0.0 mm 0.00 in0.0 mm 0.77 in19.6 mm
01:56 PM 54.5°F12.5°C 41.7°F5.4°C 62% 17.9 mph WNW28.8 kmh WNW 27.3 mph43.9 kmh 29.12 in986.1 mb 0.00 in0.0 mm 0.00 in0.0 mm 0.77 in19.6 mm
01:57 PM 54.5°F12.5°C 41.7°F5.4°C 62% 18.0 mph WNW29.0 kmh WNW 27.3 mph43.9 kmh 29.12 in986.1 mb 0.00 in0.0 mm 0.00 in0.0 mm 0.77 in19.6 mm
01:58 PM 54.5°F12.5°C 41.7°F5.4°C 62% 16.9 mph WNW27.2 kmh WNW 27.3 mph43.9 kmh 29.12 in986.1 mb 0.00 in0.0 mm 0.00 in0.0 mm 0.77 in19.6 mm
01:59 PM 54.7°F12.6°C 42.3°F5.7°C 63% 15.8 mph WNW25.4 kmh WNW 27.3 mph43.9 kmh 29.12 in986.1 mb 0.00 in0.0 mm 0.00 in0.0 mm 0.77 in19.6 mm
02:00 PM 54.5°F12.5°C 41.7°F5.4°C 62% 14.7 mph WNW23.7 kmh WNW 22.2 mph35.7 kmh 29.12 in986.1 mb 0.00 in0.0 mm 0.00 in0.0 mm 0.77 in19.6 mm
02:01 PM 54.5°F12.5°C 41.7°F5.4°C 62% 14.6 mph NW23.5 kmh NW 22.2 mph35.7 kmh 29.12 in986.1 mb 0.00 in0.0 mm 0.00 in0.0 mm 0.77 in19.6 mm
02:15 PM 54.1°F12.3°C 41.4°F5.2°C 62% 13.1 mph WNW21.1 kmh WNW 31.1 mph50.1 kmh 29.12 in986.1 mb 0.00 in0.0 mm 0.00 in0.0 mm 0.77 in19.6 mm
02:30 PM 53.8°F12.1°C 41.1°F5.1°C 62% 14.2 mph NW22.9 kmh NW 28.6 mph46.0 kmh 29.12 in986.1 mb 0.00 in0.0 mm 0.00 in0.0 mm 0.77 in19.6 mm
02:45 PM 53.6°F12.0°C 40.9°F4.9°C 62% 12.6 mph NW20.3 kmh NW 28.3 mph45.5 kmh 29.12 in986.1 mb 0.00 in0.0 mm 0.00 in0.0 mm 0.77 in19.6 mm
03:00 PM 53.6°F12.0°C 40.9°F4.9°C 62% 14.2 mph NW22.9 kmh NW 32.9 mph52.9 kmh 29.09 in985.1 mb 0.00 in0.0 mm 0.00 in0.0 mm 0.77 in19.6 mm
03:15 PM 53.4°F11.9°C 40.7°F4.8°C 62% 13.2 mph NW21.2 kmh NW 26.5 mph42.6 kmh 29.12 in986.1 mb 0.00 in0.0 mm 0.00 in0.0 mm 0.77 in19.6 mm
03:30 PM 53.1°F11.7°C 40.4°F4.7°C 62% 13.0 mph NW20.9 kmh NW 27.2 mph43.8 kmh 29.12 in986.1 mb 0.00 in0.0 mm 0.00 in0.0 mm 0.77 in19.6 mm
03:45 PM 52.5°F11.4°C 39.9°F4.4°C 62% 10.5 mph WNW16.9 kmh WNW 23.3 mph37.5 kmh 29.12 in986.1 mb 0.00 in0.0 mm 0.00 in0.0 mm 0.77 in19.6 mm
04:00 PM 52.3°F11.3°C 39.7°F4.3°C 62% 9.8 mph WNW15.8 kmh WNW 24.7 mph39.8 kmh 29.12 in986.1 mb 0.00 in0.0 mm 0.00 in0.0 mm 0.77 in19.6 mm
04:15 PM 52.2°F11.2°C 39.5°F4.2°C 62% 10.2 mph NW16.4 kmh NW 22.9 mph36.9 kmh 29.09 in985.1 mb 0.00 in0.0 mm 0.00 in0.0 mm 0.77 in19.6 mm
04:30 PM 52.0°F11.1°C 39.4°F4.1°C 62% 10.4 mph NW16.7 kmh NW 20.0 mph32.2 kmh 29.12 in986.1 mb 0.00 in0.0 mm 0.00 in0.0 mm 0.77 in19.6 mm
04:45 PM 51.8°F11.0°C 39.2°F4.0°C 62% 10.2 mph WNW16.4 kmh WNW 20.0 mph32.2 kmh 29.12 in986.1 mb 0.00 in0.0 mm 0.00 in0.0 mm 0.77 in19.6 mm
05:00 PM 51.6°F10.9°C 39.4°F4.1°C 63% 10.1 mph NW16.3 kmh NW 33.3 mph53.6 kmh 29.12 in986.1 mb 0.00 in0.0 mm 0.00 in0.0 mm 0.77 in19.6 mm
05:15 PM 51.8°F11.0°C 39.6°F4.2°C 63% 12.0 mph WNW19.3 kmh WNW 27.2 mph43.8 kmh 29.12 in986.1 mb 0.00 in0.0 mm 0.00 in0.0 mm 0.77 in19.6 mm
05:30 PM 51.6°F10.9°C 39.8°F4.3°C 64% 9.0 mph WNW14.5 kmh WNW 20.8 mph33.5 kmh 29.12 in986.1 mb 0.00 in0.0 mm 0.00 in0.0 mm 0.77 in19.6 mm
05:45 PM 51.4°F10.8°C 39.7°F4.3°C 64% 8.6 mph NW13.8 kmh NW 20.0 mph32.2 kmh 29.12 in986.1 mb 0.00 in0.0 mm 0.00 in0.0 mm 0.77 in19.6 mm
06:00 PM 51.4°F10.8°C 38.0°F3.3°C 60% 10.1 mph NW16.3 kmh NW 23.3 mph37.5 kmh 29.12 in986.1 mb 0.00 in0.0 mm 0.00 in0.0 mm 0.77 in19.6 mm
06:15 PM 51.8°F11.0°C 37.5°F3.1°C 58% 10.2 mph NW16.4 kmh NW 20.0 mph32.2 kmh 29.15 in987.1 mb 0.00 in0.0 mm 0.00 in0.0 mm 0.77 in19.6 mm
06:30 PM 52.2°F11.2°C 37.8°F3.2°C 58% 12.4 mph NW20.0 kmh NW 30.4 mph48.9 kmh 29.12 in986.1 mb 0.00 in0.0 mm 0.00 in0.0 mm 0.77 in19.6 mm
06:45 PM 49.3°F9.6°C 35.1°F1.7°C 58% 15.0 mph NW24.1 kmh NW 36.5 mph58.7 kmh 29.12 in986.1 mb 0.00 in0.0 mm 0.00 in0.0 mm 0.77 in19.6 mm
07:00 PM 46.6°F8.1°C 33.8°F1.0°C 61% 16.6 mph NW26.7 kmh NW 38.7 mph62.3 kmh 29.15 in987.1 mb 0.05 in1.3 mm 0.07 in1.8 mm 0.82 in20.8 mm
07:15 PM 45.3°F7.4°C 33.5°F0.8°C 63% 7.6 mph W12.2 kmh W 17.9 mph28.8 kmh 29.15 in987.1 mb 0.05 in1.3 mm 0.00 in0.0 mm 0.82 in20.8 mm
07:30 PM 45.0°F7.2°C 33.9°F1.1°C 65% 5.7 mph WNW9.2 kmh WNW 13.6 mph21.9 kmh 29.15 in987.1 mb 0.05 in1.3 mm 0.00 in0.0 mm 0.82 in20.8 mm
07:45 PM 46.4°F8.0°C 35.7°F2.1°C 66% 7.4 mph NW11.9 kmh NW 16.8 mph27.0 kmh 29.15 in987.1 mb 0.05 in1.3 mm 0.00 in0.0 mm 0.82 in20.8 mm
08:00 PM 47.7°F8.7°C 34.9°F1.6°C 61% 12.2 mph NW19.6 kmh NW 21.5 mph34.6 kmh 29.15 in987.1 mb 0.00 in0.0 mm 0.00 in0.0 mm 0.82 in20.8 mm
08:15 PM 48.2°F9.0°C 34.5°F1.4°C 59% 9.5 mph NW15.3 kmh NW 14.0 mph22.5 kmh 29.18 in988.1 mb 0.00 in0.0 mm 0.00 in0.0 mm 0.82 in20.8 mm
08:30 PM 48.6°F9.2°C 32.2°F0.1°C 53% 13.1 mph NNW21.1 kmh NNW 21.1 mph34.0 kmh 29.18 in988.1 mb 0.00 in0.0 mm 0.00 in0.0 mm 0.82 in20.8 mm
08:45 PM 48.6°F9.2°C 32.2°F0.1°C 53% 10.5 mph N16.9 kmh N 20.4 mph32.8 kmh 29.21 in989.2 mb 0.00 in0.0 mm 0.00 in0.0 mm 0.82 in20.8 mm
09:00 PM 47.3°F8.5°C 32.4°F0.2°C 56% 15.3 mph N24.6 kmh N 36.1 mph58.1 kmh 29.24 in990.2 mb 0.00 in0.0 mm 0.00 in0.0 mm 0.82 in20.8 mm
09:15 PM 46.2°F7.9°C 32.2°F0.1°C 58% 13.2 mph N21.2 kmh N 25.4 mph40.9 kmh 29.24 in990.2 mb 0.00 in0.0 mm 0.00 in0.0 mm 0.82 in20.8 mm
09:30 PM 45.9°F7.7°C 32.3°F0.2°C 59% 11.1 mph N17.9 kmh N 19.7 mph31.7 kmh 29.27 in991.2 mb 0.00 in0.0 mm 0.00 in0.0 mm 0.82 in20.8 mm
09:46 PM 45.1°F7.3°C 32.1°F0.1°C 60% 5.4 mph N8.7 kmh N 12.9 mph20.8 kmh 29.27 in991.2 mb 0.00 in0.0 mm 0.00 in0.0 mm 0.82 in20.8 mm
09:48 PM 45.0°F7.2°C 31.9°F-0.1°C 60% 4.8 mph NNW7.7 kmh NNW 6.1 mph9.8 kmh 29.27 in991.2 mb 0.00 in0.0 mm 0.00 in0.0 mm 0.82 in20.8 mm
09:49 PM 45.0°F7.2°C 31.9°F-0.1°C 60% 5.0 mph NNW8.0 kmh NNW 6.4 mph10.3 kmh 29.27 in991.2 mb 0.00 in0.0 mm 0.00 in0.0 mm 0.82 in20.8 mm
09:58 PM 44.6°F7.0°C 31.6°F-0.2°C 60% 4.4 mph NNW7.1 kmh NNW 6.5 mph10.5 kmh 29.27 in991.2 mb 0.00 in0.0 mm 0.00 in0.0 mm 0.82 in20.8 mm
09:59 PM 44.6°F7.0°C 31.6°F-0.2°C 60% 3.5 mph NW5.6 kmh NW 4.3 mph6.9 kmh 29.27 in991.2 mb 0.00 in0.0 mm 0.00 in0.0 mm 0.82 in20.8 mm
10:00 PM 44.6°F7.0°C 31.6°F-0.2°C 60% 4.2 mph NW6.8 kmh NW 6.8 mph10.9 kmh 29.27 in991.2 mb 0.00 in0.0 mm 0.00 in0.0 mm 0.82 in20.8 mm
10:01 PM 44.4°F6.9°C 31.8°F-0.1°C 61% 4.3 mph NNW6.9 kmh NNW 6.8 mph10.9 kmh 29.27 in991.2 mb 0.00 in0.0 mm 0.00 in0.0 mm 0.82 in20.8 mm
10:15 PM 44.1°F6.7°C 31.5°F-0.3°C 61% 5.9 mph NW9.5 kmh NW 14.3 mph23.0 kmh 29.27 in991.2 mb 0.00 in0.0 mm 0.00 in0.0 mm 0.82 in20.8 mm
10:30 PM 43.9°F6.6°C 30.9°F-0.6°C 60% 7.6 mph NNW12.2 kmh NNW 14.3 mph23.0 kmh 29.27 in991.2 mb 0.00 in0.0 mm 0.00 in0.0 mm 0.82 in20.8 mm
10:45 PM 43.7°F6.5°C 30.3°F-0.9°C 59% 7.9 mph NNW12.7 kmh NNW 14.0 mph22.5 kmh 29.30 in992.2 mb 0.00 in0.0 mm 0.00 in0.0 mm 0.82 in20.8 mm
11:00 PM 43.5°F6.4°C 28.8°F-1.8°C 56% 10.6 mph NNW17.1 kmh NNW 25.8 mph41.5 kmh 29.33 in993.2 mb 0.00 in0.0 mm 0.00 in0.0 mm 0.54 in13.7 mm
11:15 PM 43.2°F6.2°C 27.6°F-2.4°C 54% 8.4 mph NNW13.5 kmh NNW 16.5 mph26.6 kmh 29.33 in993.2 mb 0.00 in0.0 mm 0.00 in0.0 mm 0.54 in13.7 mm
11:30 PM 42.8°F6.0°C 27.3°F-2.6°C 54% 7.3 mph NNW11.7 kmh NNW 19.0 mph30.6 kmh 29.30 in992.2 mb 0.00 in0.0 mm 0.00 in0.0 mm 0.54 in13.7 mm
11:45 PM 42.1°F5.6°C 26.6°F-3.0°C 54% 6.7 mph NNW10.8 kmh NNW 16.1 mph25.9 kmh 29.30 in992.2 mb 0.00 in0.0 mm 0.00 in0.0 mm 0.54 in13.7 mm